Kimball Township, Michigan
Current Conditions -  °F | °C
As of 9:18 AM on Sunday 21 Dec 2014 (Local Time) from KPHN Reporting Station
Haze Haze  
Wind Chill: 25°   Ceiling: 3700
Heat Index: 25°   Visibility: 5mi
Dew Point: 25°   Wind: 0mph
Humidity: 100%   Direction: NA
Pressure: 30.31"   Gusts: NA
Location:  42.9481°N, 82.5626°W
Report Text: KPHN 211418Z AUTO 00000KT 5SM BR OVC037 M04/M04 A3031 RMK AO2
Loading
Personal Weather Stations






























Interactive Weather Map New forecast layout! Learn more

10-Day Weather Forecast

Advertisements
Track Severe Weather on mobile